createdAt,value
2018-12-20T00:00:53.212Z,5.42
2018-12-20T00:03:20.415Z,5.45
2018-12-20T00:05:47.892Z,5.48
2018-12-20T00:08:15.190Z,5.42
2018-12-20T00:10:42.589Z,5.56
2018-12-20T00:13:09.858Z,5.52
2018-12-20T00:15:37.120Z,5.56
2018-12-20T00:18:04.439Z,5.54
2018-12-20T00:20:31.798Z,5.52
2018-12-20T00:22:59.160Z,5.46
2018-12-20T00:25:26.530Z,5.47
2018-12-20T00:27:53.818Z,5.54
2018-12-20T00:30:21.085Z,5.62
2018-12-20T00:32:48.289Z,5.56
2018-12-20T00:35:16.156Z,5.53
2018-12-20T00:37:43.511Z,5.61
2018-12-20T00:40:11.067Z,5.62
2018-12-20T00:42:38.481Z,5.65
2018-12-20T00:45:05.854Z,5.73
2018-12-20T00:47:33.276Z,5.66
2018-12-20T00:50:00.779Z,5.69
2018-12-20T00:52:28.100Z,5.64
2018-12-20T00:54:55.383Z,5.67
2018-12-20T00:57:22.661Z,5.74
2018-12-20T00:59:49.893Z,5.91
2018-12-20T01:02:17.122Z,5.91
2018-12-20T01:04:44.497Z,5.79
2018-12-20T01:07:12.212Z,5.81
2018-12-20T01:09:39.584Z,5.83
2018-12-20T01:12:06.911Z,5.80
2018-12-20T01:14:34.199Z,5.91
2018-12-20T01:17:01.524Z,5.87
2018-12-20T01:19:28.875Z,5.88
2018-12-20T01:21:56.366Z,5.98
2018-12-20T01:24:23.620Z,5.91
2018-12-20T01:26:50.934Z,5.94
2018-12-20T01:29:18.495Z,5.90
2018-12-20T01:31:45.929Z,5.88
2018-12-20T01:34:13.478Z,5.89
2018-12-20T01:36:40.929Z,5.88
2018-12-20T01:39:08.313Z,5.91
2018-12-20T01:41:35.590Z,5.90
2018-12-20T01:44:02.932Z,5.98
2018-12-20T01:46:30.293Z,6.04
2018-12-20T01:48:57.549Z,6.01
2018-12-20T01:51:24.981Z,5.88
2018-12-20T01:53:52.386Z,5.96
2018-12-20T01:56:19.725Z,5.96
2018-12-20T01:58:46.926Z,6.00
2018-12-20T02:01:14.303Z,5.95
2018-12-20T02:03:41.731Z,5.93
2018-12-20T02:06:09.037Z,6.07
2018-12-20T02:08:36.336Z,6.02
2018-12-20T02:11:03.647Z,6.04
2018-12-20T02:13:30.877Z,5.95
2018-12-20T02:15:58.396Z,5.91
2018-12-20T02:18:25.917Z,5.95
2018-12-20T02:20:53.343Z,5.96
2018-12-20T02:23:20.881Z,5.91
2018-12-20T02:25:48.398Z,5.92
2018-12-20T02:28:15.899Z,5.84
2018-12-20T02:30:43.491Z,5.72
2018-12-20T02:33:10.885Z,5.69
2018-12-20T02:35:38.128Z,5.78
2018-12-20T02:38:05.378Z,5.77
2018-12-20T02:40:32.763Z,5.86
2018-12-20T02:43:00.196Z,5.88
2018-12-20T02:45:27.670Z,5.82
2018-12-20T02:47:55.101Z,5.77
2018-12-20T02:50:22.513Z,5.84
2018-12-20T02:52:49.734Z,5.67
2018-12-20T02:55:17.059Z,5.56
2018-12-20T02:57:44.628Z,5.62
2018-12-20T03:00:12.002Z,5.64
2018-12-20T03:02:39.399Z,5.78
2018-12-20T03:05:06.773Z,5.72
2018-12-20T03:07:33.999Z,5.67
2018-12-20T03:10:01.315Z,5.65
2018-12-20T03:12:28.790Z,5.67
2018-12-20T03:14:56.244Z,5.69
2018-12-20T03:17:23.899Z,5.75
2018-12-20T03:19:51.188Z,5.79
2018-12-20T03:22:18.766Z,5.80
2018-12-20T03:24:46.105Z,5.69
2018-12-20T03:27:13.560Z,5.77
2018-12-20T03:29:40.836Z,5.71
2018-12-20T03:32:08.078Z,5.70
2018-12-20T03:34:35.429Z,5.57
2018-12-20T03:37:02.911Z,5.57
2018-12-20T03:39:30.243Z,5.54
2018-12-20T03:41:57.692Z,5.56
2018-12-20T03:44:25.009Z,5.57
2018-12-20T03:46:52.327Z,5.64
2018-12-20T03:49:19.667Z,5.60
2018-12-20T03:51:47.114Z,5.59
2018-12-20T03:54:14.481Z,5.61
2018-12-20T03:56:41.938Z,5.64
2018-12-20T03:59:09.397Z,5.66
2018-12-20T04:01:36.980Z,5.70
2018-12-20T04:04:04.556Z,5.76
2018-12-20T04:06:31.905Z,5.75
2018-12-20T04:08:59.231Z,5.71
2018-12-20T04:11:26.440Z,5.77
2018-12-20T04:13:53.678Z,5.67
2018-12-20T04:16:20.877Z,5.78
2018-12-20T04:18:48.242Z,5.79
2018-12-20T04:21:16.397Z,5.80
2018-12-20T04:23:43.817Z,5.77
2018-12-20T04:26:11.303Z,5.71
2018-12-20T04:28:38.604Z,5.69
2018-12-20T04:31:05.963Z,5.72
2018-12-20T04:33:33.313Z,5.73
2018-12-20T04:36:00.535Z,5.75
2018-12-20T04:38:28.166Z,5.68
2018-12-20T04:40:56.041Z,5.65
2018-12-20T04:43:23.497Z,5.82
2018-12-20T04:45:50.872Z,5.80
2018-12-20T04:48:18.064Z,5.90
2018-12-20T04:50:45.945Z,5.90
2018-12-20T04:53:13.319Z,5.83
2018-12-20T04:55:40.618Z,5.85
2018-12-20T04:58:08.249Z,5.89
2018-12-20T05:00:35.765Z,5.93
2018-12-20T05:03:03.208Z,5.83
2018-12-20T05:05:30.658Z,5.75
2018-12-20T05:07:58.117Z,5.81
2018-12-20T05:10:25.499Z,5.86
2018-12-20T05:12:52.817Z,5.89
2018-12-20T05:15:20.302Z,5.79
2018-12-20T05:17:47.986Z,5.83
2018-12-20T05:20:15.511Z,5.88
2018-12-20T05:22:42.786Z,5.91
2018-12-20T05:25:10.040Z,5.88
2018-12-20T05:27:37.250Z,5.90
2018-12-20T05:30:05.003Z,5.87
2018-12-20T05:32:32.639Z,5.94
2018-12-20T05:35:00.131Z,6.00
2018-12-20T05:37:27.672Z,5.95
2018-12-20T05:39:55.070Z,5.93
2018-12-20T05:42:22.643Z,5.97
2018-12-20T05:44:50.089Z,5.88
2018-12-20T05:47:17.560Z,5.86
2018-12-20T05:49:44.965Z,5.90
2018-12-20T05:52:12.827Z,5.95
2018-12-20T05:54:40.240Z,6.03
2018-12-20T05:57:07.638Z,6.04
2018-12-20T05:59:35.150Z,5.93
2018-12-20T06:02:02.474Z,5.94
2018-12-20T06:04:29.925Z,5.91
2018-12-20T06:06:57.530Z,6.02
2018-12-20T06:09:24.852Z,5.88
2018-12-20T06:11:52.425Z,5.90
2018-12-20T06:14:19.676Z,5.87
2018-12-20T06:16:47.148Z,5.85
2018-12-20T06:19:14.417Z,5.85
2018-12-20T06:21:42.098Z,5.87
2018-12-20T06:24:09.456Z,5.98
2018-12-20T06:26:36.685Z,5.98
2018-12-20T06:29:04.052Z,5.79
2018-12-20T06:31:31.293Z,5.81
2018-12-20T06:33:58.603Z,5.74
2018-12-20T06:36:26.049Z,5.79
2018-12-20T06:38:53.257Z,5.85
2018-12-20T06:41:20.497Z,5.75
2018-12-20T06:43:47.712Z,5.78
2018-12-20T06:46:21.167Z,5.84
2018-12-20T06:48:44.194Z,5.76
2018-12-20T06:51:11.428Z,5.75
2018-12-20T06:53:38.655Z,5.73
2018-12-20T06:56:05.940Z,5.64
2018-12-20T06:58:33.196Z,5.77
2018-12-20T07:01:00.410Z,5.67
2018-12-20T07:03:27.660Z,5.80
2018-12-20T07:05:54.890Z,5.79
2018-12-20T07:08:22.129Z,5.83
2018-12-20T07:10:49.362Z,5.81
2018-12-20T07:13:17.576Z,5.84
2018-12-20T07:15:44.787Z,5.91
2018-12-20T07:18:12.069Z,5.98
2018-12-20T07:20:39.428Z,5.87
2018-12-20T07:23:06.841Z,5.87
2018-12-20T07:25:34.132Z,5.85
2018-12-20T07:28:01.415Z,5.92
2018-12-20T07:30:28.624Z,5.90
2018-12-20T07:32:55.984Z,5.94
2018-12-20T07:35:23.206Z,5.94
2018-12-20T07:37:50.448Z,5.94
2018-12-20T07:40:17.779Z,6.05
2018-12-20T07:42:51.552Z,6.12
2018-12-20T07:45:19.486Z,6.15
2018-12-20T07:47:46.797Z,6.19
2018-12-20T07:50:14.104Z,6.23
2018-12-20T07:52:41.348Z,6.24
2018-12-20T07:55:08.560Z,6.29
2018-12-20T07:57:35.973Z,6.24
2018-12-20T08:00:04.083Z,6.31
2018-12-20T08:02:31.328Z,6.25
2018-12-20T08:04:58.573Z,6.34
2018-12-20T08:07:25.803Z,6.29
2018-12-20T08:09:53.032Z,6.23
2018-12-20T08:12:20.252Z,6.35
2018-12-20T08:14:47.636Z,6.32
2018-12-20T08:17:14.844Z,6.27
2018-12-20T08:19:42.085Z,6.30
2018-12-20T08:22:09.329Z,6.37
2018-12-20T08:24:36.633Z,6.37
2018-12-20T08:27:03.850Z,6.35
2018-12-20T08:29:31.097Z,6.37
2018-12-20T08:31:58.310Z,6.35
2018-12-20T08:34:25.844Z,6.38
2018-12-20T08:36:53.067Z,6.38
2018-12-20T08:39:20.768Z,6.44
2018-12-20T08:41:49.712Z,6.51
2018-12-20T08:44:17.156Z,6.54
2018-12-20T08:46:44.441Z,6.58
2018-12-20T08:49:11.691Z,6.56
2018-12-20T08:51:39.047Z,6.49
2018-12-20T08:54:06.308Z,6.49
2018-12-20T08:56:33.515Z,6.51
2018-12-20T08:59:00.855Z,6.51
2018-12-20T09:01:28.712Z,6.56
2018-12-20T09:03:55.965Z,6.57
2018-12-20T09:06:23.287Z,6.59
2018-12-20T09:08:50.541Z,6.63
2018-12-20T09:11:17.761Z,6.67
2018-12-20T09:13:45.061Z,6.70
2018-12-20T09:16:12.459Z,6.75
2018-12-20T09:18:39.973Z,6.84
2018-12-20T09:21:07.233Z,6.92
2018-12-20T09:23:34.491Z,6.83
2018-12-20T09:26:01.851Z,7.00
2018-12-20T09:28:29.060Z,6.95
2018-12-20T09:30:56.317Z,6.91
2018-12-20T09:33:23.986Z,6.93
2018-12-20T09:35:51.627Z,7.04
2018-12-20T09:38:19.025Z,7.04
2018-12-20T09:40:47.653Z,7.02
2018-12-20T09:43:14.849Z,7.13
2018-12-20T09:45:42.103Z,7.13
2018-12-20T09:48:09.322Z,7.10
2018-12-20T09:50:36.634Z,7.13
2018-12-20T09:53:04.729Z,7.30
2018-12-20T09:55:31.951Z,7.27
2018-12-20T09:57:59.205Z,7.28
2018-12-20T10:00:26.567Z,7.29
2018-12-20T10:02:53.852Z,7.31
2018-12-20T10:05:21.090Z,7.42
2018-12-20T10:07:48.421Z,7.41
2018-12-20T10:10:15.958Z,7.43
2018-12-20T10:12:43.196Z,7.51
2018-12-20T10:15:10.570Z,7.69
2018-12-20T10:17:37.797Z,7.60
2018-12-20T10:20:08.005Z,7.74
2018-12-20T10:22:35.232Z,7.61
2018-12-20T10:25:02.564Z,7.68
2018-12-20T10:27:31.476Z,7.73
2018-12-20T10:29:59.071Z,7.65
2018-12-20T10:32:26.488Z,7.90
2018-12-20T10:34:53.704Z,7.96
2018-12-20T10:37:20.964Z,7.97
2018-12-20T10:39:48.234Z,8.15
2018-12-20T10:42:15.614Z,8.23
2018-12-20T10:44:42.858Z,8.23
2018-12-20T10:47:16.014Z,8.29
2018-12-20T10:49:43.257Z,8.26
2018-12-20T10:52:10.616Z,8.41
2018-12-20T10:54:37.850Z,8.44
2018-12-20T10:57:05.170Z,8.58
2018-12-20T10:59:32.549Z,8.64
2018-12-20T11:02:05.399Z,8.49
2018-12-20T11:04:38.317Z,8.61
2018-12-20T11:07:11.159Z,8.69
2018-12-20T11:09:44.217Z,8.69
2018-12-20T11:12:16.052Z,8.75
2018-12-20T11:14:43.323Z,8.75
2018-12-20T11:17:10.987Z,8.62
2018-12-20T11:19:40.331Z,8.49
2018-12-20T11:22:08.282Z,8.61
2018-12-20T11:24:36.187Z,8.62
2018-12-20T11:27:03.856Z,8.56
2018-12-20T11:29:32.190Z,8.56
2018-12-20T11:31:59.757Z,8.59
2018-12-20T11:34:28.545Z,8.57
2018-12-20T11:36:56.876Z,8.55
2018-12-20T11:39:24.152Z,8.63
2018-12-20T11:41:52.698Z,8.59
2018-12-20T11:44:20.623Z,8.62
2018-12-20T11:46:49.126Z,8.74
2018-12-20T11:49:16.489Z,8.67
2018-12-20T11:51:43.844Z,8.64
2018-12-20T11:54:11.074Z,8.70
2018-12-20T11:56:38.499Z,8.70
2018-12-20T11:59:05.740Z,8.72
2018-12-20T12:01:33.071Z,8.76
2018-12-20T12:04:01.312Z,8.73
2018-12-20T12:06:28.813Z,8.79
2018-12-20T12:08:56.451Z,8.91
2018-12-20T12:11:23.680Z,8.74
2018-12-20T12:13:55.815Z,8.63
2018-12-20T12:16:23.343Z,8.66
2018-12-20T12:18:59.010Z,8.76
2018-12-20T12:21:31.809Z,8.84
2018-12-20T12:24:01.282Z,8.80
2018-12-20T12:26:35.938Z,8.69
2018-12-20T12:30:13.910Z,8.82
2018-12-20T12:32:49.372Z,8.82
2018-12-20T12:35:21.131Z,8.77
2018-12-20T12:37:53.274Z,8.72
2018-12-20T12:43:17.584Z,8.90
2018-12-20T12:45:57.658Z,8.84
2018-12-20T12:48:38.145Z,8.76
2018-12-20T12:51:08.855Z,8.75
2018-12-20T12:53:46.804Z,8.74
2018-12-20T12:56:23.751Z,8.85
2018-12-20T12:58:53.739Z,8.77
2018-12-20T13:01:21.047Z,8.77
2018-12-20T13:03:48.313Z,8.74
2018-12-20T13:06:15.596Z,8.83
2018-12-20T13:08:44.113Z,8.78
2018-12-20T13:11:11.467Z,8.75
2018-12-20T13:13:38.749Z,8.71
2018-12-20T13:16:05.934Z,8.72
2018-12-20T13:18:33.148Z,8.75
2018-12-20T13:21:00.370Z,8.71
2018-12-20T13:23:27.629Z,8.76
2018-12-20T13:25:54.851Z,8.80
2018-12-20T13:28:22.104Z,8.83
2018-12-20T13:30:49.505Z,8.82
2018-12-20T13:33:16.857Z,8.76
2018-12-20T13:35:44.150Z,8.74
2018-12-20T13:38:11.361Z,8.77
2018-12-20T13:40:38.611Z,8.71
2018-12-20T13:43:05.873Z,8.76
2018-12-20T13:45:33.126Z,8.73
2018-12-20T13:48:00.409Z,8.75
2018-12-20T13:50:27.837Z,8.81
2018-12-20T13:52:55.089Z,8.72
2018-12-20T13:55:22.332Z,8.68
2018-12-20T13:57:49.670Z,8.59
2018-12-20T14:00:17.055Z,8.70
2018-12-20T14:02:44.541Z,8.74
2018-12-20T14:05:11.950Z,8.76
2018-12-20T14:07:39.510Z,8.80
2018-12-20T14:10:08.386Z,8.68
2018-12-20T14:12:35.873Z,8.62
2018-12-20T14:15:03.508Z,8.64
2018-12-20T14:17:30.758Z,8.71
2018-12-20T14:19:58.018Z,8.56
2018-12-20T14:22:25.318Z,8.58
2018-12-20T14:24:52.549Z,8.53
2018-12-20T14:27:19.814Z,8.51
2018-12-20T14:29:47.197Z,8.61
2018-12-20T14:34:55.017Z,8.42
2018-12-20T14:37:22.230Z,8.56
2018-12-20T14:39:49.474Z,8.58
2018-12-20T14:42:16.778Z,8.55
2018-12-20T14:44:44.024Z,8.49
2018-12-20T14:47:11.234Z,8.48
2018-12-20T14:49:38.549Z,8.48
2018-12-20T14:52:05.796Z,8.42
2018-12-20T14:54:33.004Z,8.42
2018-12-20T14:57:00.229Z,8.41
2018-12-20T14:59:27.480Z,8.44
2018-12-20T15:01:54.759Z,8.49
2018-12-20T15:04:22.677Z,8.43
2018-12-20T15:06:49.917Z,8.36
2018-12-20T15:09:17.147Z,8.35
2018-12-20T15:11:44.407Z,8.28
2018-12-20T15:14:11.726Z,8.26
2018-12-20T15:16:39.114Z,8.27
2018-12-20T15:19:06.350Z,8.22
2018-12-20T15:21:33.573Z,8.21
2018-12-20T15:24:00.902Z,8.14
2018-12-20T15:26:28.141Z,8.14
2018-12-20T15:28:55.588Z,8.15
2018-12-20T15:31:22.958Z,8.26
2018-12-20T15:33:50.177Z,8.18
2018-12-20T15:36:17.581Z,8.19
2018-12-20T15:38:46.313Z,8.23
2018-12-20T15:41:16.060Z,8.24
2018-12-20T15:43:43.349Z,8.20
2018-12-20T15:46:10.633Z,8.19
2018-12-20T15:48:37.885Z,8.14
2018-12-20T15:51:05.137Z,8.15
2018-12-20T15:53:32.385Z,8.16
2018-12-20T15:55:59.766Z,8.09
2018-12-20T15:58:26.984Z,8.31
2018-12-20T16:00:54.271Z,8.14
2018-12-20T16:03:21.507Z,8.20
2018-12-20T16:05:48.725Z,8.23
2018-12-20T16:08:16.004Z,8.22
2018-12-20T16:10:43.209Z,8.14
2018-12-20T16:13:10.441Z,8.11
2018-12-20T16:15:37.649Z,8.17
2018-12-20T16:18:05.458Z,8.15
2018-12-20T16:20:32.870Z,8.20
2018-12-20T16:23:00.129Z,8.17
2018-12-20T16:25:27.421Z,8.16
2018-12-20T16:27:54.644Z,7.98
2018-12-20T16:30:21.897Z,8.04
2018-12-20T16:32:49.181Z,8.04
2018-12-20T16:35:16.422Z,7.92
2018-12-20T16:37:43.676Z,7.87
2018-12-20T16:40:10.887Z,7.85
2018-12-20T16:42:38.164Z,7.69
2018-12-20T16:45:06.245Z,7.60
2018-12-20T16:47:34.335Z,7.64
2018-12-20T16:50:01.604Z,7.60
2018-12-20T16:52:28.864Z,7.52
2018-12-20T16:54:56.077Z,7.63
2018-12-20T16:57:23.434Z,7.67
2018-12-20T16:59:50.754Z,7.64
2018-12-20T17:02:18.068Z,7.64
2018-12-20T17:04:45.284Z,7.68
2018-12-20T17:07:12.841Z,7.56
2018-12-20T17:09:40.061Z,7.48
2018-12-20T17:12:07.260Z,7.59
2018-12-20T17:14:34.517Z,7.58
2018-12-20T17:17:01.758Z,7.66
2018-12-20T17:19:29.415Z,7.49
2018-12-20T17:21:56.666Z,7.50
2018-12-20T17:24:23.921Z,7.44
2018-12-20T17:26:51.145Z,7.46
2018-12-20T17:29:18.382Z,7.45
2018-12-20T17:31:45.733Z,7.42
2018-12-20T17:34:12.973Z,7.53
2018-12-20T17:36:40.290Z,7.48
2018-12-20T17:39:07.953Z,7.45
2018-12-20T17:41:35.430Z,7.40
2018-12-20T17:44:03.288Z,7.38
2018-12-20T17:46:30.741Z,7.37
2018-12-20T17:48:57.976Z,7.43
2018-12-20T17:51:25.217Z,7.45
2018-12-20T17:53:52.454Z,7.38
2018-12-20T17:56:19.737Z,7.42
2018-12-20T17:58:47.117Z,7.37
2018-12-20T18:01:14.353Z,7.30
2018-12-20T18:03:41.619Z,7.37
2018-12-20T18:06:08.839Z,7.42
2018-12-20T18:08:36.242Z,7.44
2018-12-20T18:11:04.175Z,7.40
2018-12-20T18:13:32.426Z,7.37
2018-12-20T18:16:00.936Z,7.36
2018-12-20T18:18:28.903Z,7.49
2018-12-20T18:20:57.385Z,7.49
2018-12-20T18:23:25.916Z,7.47
2018-12-20T18:25:54.833Z,7.37
2018-12-20T18:28:23.606Z,7.48
2018-12-20T18:30:52.180Z,7.46
2018-12-20T18:33:20.405Z,7.34
2018-12-20T18:35:47.685Z,7.34
2018-12-20T18:38:14.960Z,7.35
2018-12-20T18:40:45.233Z,7.38
2018-12-20T18:43:12.467Z,7.39
2018-12-20T18:45:39.778Z,7.29
2018-12-20T18:48:07.000Z,7.29
2018-12-20T18:50:34.241Z,7.37
2018-12-20T18:53:01.455Z,7.34
2018-12-20T18:55:28.730Z,7.32
2018-12-20T18:57:55.943Z,7.39
2018-12-20T19:00:23.311Z,7.45
2018-12-20T19:02:50.536Z,7.48
2018-12-20T19:05:17.820Z,7.32
2018-12-20T19:07:45.045Z,7.33
2018-12-20T19:10:12.315Z,7.36
2018-12-20T19:12:39.534Z,7.42
2018-12-20T19:15:08.341Z,7.36
2018-12-20T19:17:35.552Z,7.48
2018-12-20T19:20:03.216Z,7.42
2018-12-20T19:22:30.641Z,7.42
2018-12-20T19:24:57.986Z,7.39
2018-12-20T19:27:25.235Z,7.48
2018-12-20T19:29:52.471Z,7.53
2018-12-20T19:32:19.742Z,7.49
2018-12-20T19:34:47.524Z,7.55
2018-12-20T19:37:14.902Z,7.55
2018-12-20T19:39:42.150Z,7.58
2018-12-20T19:42:14.083Z,7.50
2018-12-20T19:44:41.319Z,7.47
2018-12-20T19:47:08.537Z,7.49
2018-12-20T19:49:35.789Z,7.49
2018-12-20T19:52:03.042Z,7.55
2018-12-20T19:54:30.453Z,7.47
2018-12-20T19:57:02.957Z,7.49
2018-12-20T19:59:38.485Z,7.49
2018-12-20T20:02:04.548Z,7.48
2018-12-20T20:04:28.912Z,7.49
2018-12-20T20:06:56.162Z,7.46
2018-12-20T20:09:23.370Z,7.49
2018-12-20T20:11:50.628Z,7.46
2018-12-20T20:14:17.835Z,7.46
2018-12-20T20:16:50.622Z,7.50
2018-12-20T20:19:14.367Z,7.54
2018-12-20T20:21:41.615Z,7.55
2018-12-20T20:24:08.840Z,7.48
2018-12-20T20:26:37.993Z,7.44
2018-12-20T20:29:05.537Z,7.43
2018-12-20T20:31:32.797Z,7.47
2018-12-20T20:34:00.032Z,7.45
2018-12-20T20:36:27.265Z,7.45
2018-12-20T20:39:01.764Z,7.52
2018-12-20T20:41:23.850Z,7.46
2018-12-20T20:43:51.099Z,7.45
2018-12-20T20:46:18.326Z,7.50
2018-12-20T20:48:45.533Z,7.54
2018-12-20T20:51:12.828Z,7.54
2018-12-20T20:53:40.192Z,7.53
2018-12-20T20:56:07.453Z,7.60
2018-12-20T20:58:34.654Z,7.65
2018-12-20T21:01:02.269Z,7.54
2018-12-20T21:03:29.529Z,7.42
2018-12-20T21:05:56.782Z,7.31
2018-12-20T21:08:24.020Z,7.47
2018-12-20T21:10:51.261Z,7.41
2018-12-20T21:13:18.478Z,7.42
2018-12-20T21:15:45.688Z,7.39
2018-12-20T21:18:12.921Z,7.39
2018-12-20T21:20:40.117Z,7.54
2018-12-20T21:23:07.365Z,7.52
2018-12-20T21:25:36.376Z,7.46
2018-12-20T21:28:04.273Z,7.46
2018-12-20T21:30:33.226Z,7.53
2018-12-20T21:33:01.309Z,7.50
2018-12-20T21:35:28.984Z,7.53
2018-12-20T21:37:57.648Z,7.57
2018-12-20T21:40:25.848Z,7.56
2018-12-20T21:42:53.137Z,7.58
2018-12-20T21:45:20.388Z,7.55
2018-12-20T21:47:47.608Z,7.58
2018-12-20T21:50:14.856Z,7.64
2018-12-20T21:52:42.114Z,7.57
2018-12-20T21:55:09.915Z,7.56
2018-12-20T21:57:37.190Z,7.62
2018-12-20T22:00:05.464Z,7.58
2018-12-20T22:02:32.806Z,7.58
2018-12-20T22:05:00.081Z,7.65
2018-12-20T22:07:27.311Z,7.65
2018-12-20T22:09:54.516Z,7.68
2018-12-20T22:12:21.748Z,7.63
2018-12-20T22:14:48.986Z,7.58
2018-12-20T22:17:16.233Z,7.70
2018-12-20T22:19:43.503Z,7.57
2018-12-20T22:22:10.727Z,7.56
2018-12-20T22:24:37.998Z,7.55
2018-12-20T22:27:05.240Z,7.60
2018-12-20T22:29:32.469Z,7.70
2018-12-20T22:31:59.689Z,7.67
2018-12-20T22:34:26.921Z,7.62
2018-12-20T22:36:54.142Z,7.60
2018-12-20T22:39:21.412Z,7.69
2018-12-20T22:41:59.610Z,7.64
2018-12-20T22:44:30.220Z,7.58
2018-12-20T22:47:00.451Z,7.60
2018-12-20T22:49:29.264Z,7.65
2018-12-20T22:52:02.860Z,7.63
2018-12-20T22:54:32.062Z,7.67
2018-12-20T22:57:00.635Z,7.68
2018-12-20T22:59:29.679Z,7.69
2018-12-20T23:01:58.748Z,7.58
2018-12-20T23:04:28.100Z,7.58
2018-12-20T23:06:55.319Z,7.63
2018-12-20T23:09:22.571Z,7.64
2018-12-20T23:11:49.920Z,7.58
2018-12-20T23:14:17.157Z,7.57
2018-12-20T23:16:44.358Z,7.54
2018-12-20T23:19:11.607Z,7.64
2018-12-20T23:21:38.869Z,7.53
2018-12-20T23:24:06.114Z,7.55
2018-12-20T23:26:33.459Z,7.53
2018-12-20T23:29:00.705Z,7.51
2018-12-20T23:31:27.930Z,7.57
2018-12-20T23:33:55.132Z,7.61
2018-12-20T23:36:22.398Z,7.64
2018-12-20T23:38:49.900Z,7.53
2018-12-20T23:41:17.535Z,7.55
2018-12-20T23:43:44.762Z,7.54
2018-12-20T23:46:12.001Z,7.48
2018-12-20T23:48:39.193Z,7.44
2018-12-20T23:51:13.572Z,7.36
2018-12-20T23:53:36.804Z,7.43
2018-12-20T23:56:04.249Z,7.40
2018-12-20T23:58:31.441Z,7.39
